createdAt,value
2023-01-26T00:00:02.158Z,2.04
2023-01-26T00:01:02.313Z,2.03
2023-01-26T00:02:02.091Z,2.02
2023-01-26T00:03:02.373Z,2.04
2023-01-26T00:04:02.122Z,2.01
2023-01-26T00:05:02.306Z,2.02
2023-01-26T00:06:02.321Z,2.01
2023-01-26T00:07:03.187Z,2.00
2023-01-26T00:08:02.597Z,2.02
2023-01-26T00:09:02.895Z,2.02
2023-01-26T00:10:02.648Z,2.04
2023-01-26T00:11:02.640Z,2.02
2023-01-26T00:12:03.165Z,2.04
2023-01-26T00:13:02.875Z,2.02
2023-01-26T00:14:03.023Z,2.02
2023-01-26T00:15:03.648Z,2.03
2023-01-26T00:16:03.145Z,2.03
2023-01-26T00:17:02.575Z,1.99
2023-01-26T00:18:02.012Z,2.02
2023-01-26T00:19:02.239Z,1.99
2023-01-26T00:20:02.567Z,1.99
2023-01-26T00:21:02.402Z,1.98
2023-01-26T00:22:02.909Z,2.02
2023-01-26T00:23:02.516Z,2.01
2023-01-26T00:24:02.355Z,2.01
2023-01-26T00:25:02.580Z,1.99
2023-01-26T00:26:02.291Z,2.02
2023-01-26T00:27:02.275Z,1.99
2023-01-26T00:28:02.259Z,2.01
2023-01-26T00:29:02.061Z,1.99
2023-01-26T00:30:02.125Z,2.00
2023-01-26T00:31:02.470Z,1.99
2023-01-26T00:32:02.517Z,1.99
2023-01-26T00:33:02.479Z,1.97
2023-01-26T00:34:02.339Z,1.97
2023-01-26T00:35:02.107Z,2.03
2023-01-26T00:36:02.572Z,2.02
2023-01-26T00:37:02.340Z,2.00
2023-01-26T00:38:02.509Z,1.99
2023-01-26T00:39:02.407Z,2.00
2023-01-26T00:40:02.227Z,2.01
2023-01-26T00:41:03.670Z,2.00
2023-01-26T00:42:02.510Z,2.13
2023-01-26T00:43:02.797Z,2.09
2023-01-26T00:44:04.349Z,2.09
2023-01-26T00:45:04.267Z,2.18
2023-01-26T00:46:04.316Z,2.12
2023-01-26T00:47:03.433Z,2.10
2023-01-26T00:48:03.575Z,2.08
2023-01-26T00:49:03.931Z,2.03
2023-01-26T00:50:03.586Z,2.04
2023-01-26T00:51:03.976Z,2.03
2023-01-26T00:52:04.155Z,2.05
2023-01-26T00:53:04.387Z,2.02
2023-01-26T00:54:04.475Z,2.04
2023-01-26T00:55:04.155Z,2.02
2023-01-26T00:56:03.933Z,2.03
2023-01-26T00:57:03.477Z,2.01
2023-01-26T00:58:01.918Z,2.04
2023-01-26T00:59:03.116Z,2.00
2023-01-26T01:00:03.325Z,2.10
2023-01-26T01:01:03.262Z,2.08
2023-01-26T01:02:04.443Z,2.05
2023-01-26T01:03:04.772Z,2.04
2023-01-26T01:04:04.838Z,2.05
2023-01-26T01:05:02.788Z,2.00
2023-01-26T01:06:02.992Z,2.04
2023-01-26T01:07:02.417Z,2.04
2023-01-26T01:08:02.452Z,2.00
2023-01-26T01:09:02.789Z,2.01
2023-01-26T01:10:02.932Z,2.02
2023-01-26T01:11:02.719Z,1.99
2023-01-26T01:12:02.455Z,2.01
2023-01-26T01:13:02.609Z,1.99
2023-01-26T01:14:03.022Z,1.98
2023-01-26T01:15:02.424Z,1.99
2023-01-26T01:16:03.021Z,1.99
2023-01-26T01:17:02.593Z,2.01
2023-01-26T01:18:03.011Z,1.98
2023-01-26T01:19:02.923Z,1.99
2023-01-26T01:20:02.437Z,1.99
2023-01-26T01:21:02.749Z,1.99
2023-01-26T01:22:02.726Z,1.98
2023-01-26T01:23:02.353Z,1.97
2023-01-26T01:24:02.420Z,1.97
2023-01-26T01:25:03.657Z,1.99
2023-01-26T01:26:02.085Z,2.12
2023-01-26T01:27:02.733Z,2.08
2023-01-26T01:28:02.366Z,2.06
2023-01-26T01:29:02.603Z,2.04
2023-01-26T01:30:02.827Z,2.01
2023-01-26T01:31:02.426Z,2.01
2023-01-26T01:32:02.696Z,2.00
2023-01-26T01:33:03.032Z,2.01
2023-01-26T01:34:03.085Z,1.97
2023-01-26T01:35:02.604Z,2.00
2023-01-26T01:36:03.060Z,1.97
2023-01-26T01:37:02.776Z,1.96
2023-01-26T01:38:03.201Z,1.97
2023-01-26T01:39:03.128Z,1.97
2023-01-26T01:40:03.152Z,1.98
2023-01-26T01:41:04.316Z,1.98
2023-01-26T01:42:03.675Z,2.07
2023-01-26T01:43:04.285Z,2.03
2023-01-26T01:44:04.294Z,2.06
2023-01-26T01:45:02.594Z,2.02
2023-01-26T01:46:02.413Z,2.01
2023-01-26T01:47:02.904Z,1.99
2023-01-26T01:48:02.964Z,1.99
2023-01-26T01:49:02.850Z,1.99
2023-01-26T01:50:02.716Z,1.98
2023-01-26T01:51:02.777Z,1.97
2023-01-26T01:52:02.617Z,1.96
2023-01-26T01:53:02.176Z,1.96
2023-01-26T01:54:02.437Z,1.97
2023-01-26T01:55:02.044Z,1.98
2023-01-26T01:56:02.340Z,1.95
2023-01-26T01:57:02.786Z,1.96
2023-01-26T01:58:02.918Z,1.96
2023-01-26T01:59:02.711Z,1.95
2023-01-26T02:00:02.989Z,1.96
2023-01-26T02:01:02.656Z,1.98
2023-01-26T02:02:02.503Z,1.94
2023-01-26T02:03:01.957Z,1.97
2023-01-26T02:04:01.868Z,1.95
2023-01-26T02:05:02.051Z,1.94
2023-01-26T02:06:02.490Z,1.95
2023-01-26T02:07:02.608Z,1.95
2023-01-26T02:08:02.788Z,1.94
2023-01-26T02:09:02.771Z,1.94
2023-01-26T02:10:02.188Z,1.92
2023-01-26T02:11:02.570Z,1.93
2023-01-26T02:12:01.899Z,1.95
2023-01-26T02:13:01.649Z,1.94
2023-01-26T02:14:01.967Z,1.95
2023-01-26T02:15:01.791Z,1.95
2023-01-26T02:16:02.080Z,1.96
2023-01-26T02:17:02.173Z,1.94
2023-01-26T02:18:01.868Z,1.95
2023-01-26T02:19:03.280Z,1.95
2023-01-26T02:20:03.618Z,2.10
2023-01-26T02:21:03.166Z,2.03
2023-01-26T02:22:04.038Z,2.00
2023-01-26T02:23:03.792Z,1.98
2023-01-26T02:24:04.245Z,1.99
2023-01-26T02:25:03.967Z,1.97
2023-01-26T02:26:04.237Z,1.98
2023-01-26T02:27:03.221Z,1.96
2023-01-26T02:28:03.416Z,1.95
2023-01-26T02:29:03.652Z,1.96
2023-01-26T02:30:03.530Z,1.95
2023-01-26T02:31:03.818Z,1.95
2023-01-26T02:32:03.717Z,1.97
2023-01-26T02:33:03.500Z,1.95
2023-01-26T02:34:01.982Z,1.96
2023-01-26T02:35:03.809Z,1.97
2023-01-26T02:36:03.655Z,2.07
2023-01-26T02:37:04.307Z,2.00
2023-01-26T02:38:03.933Z,1.99
2023-01-26T02:39:02.513Z,1.98
2023-01-26T02:40:02.421Z,1.99
2023-01-26T02:41:02.572Z,1.98
2023-01-26T02:42:01.713Z,1.97
2023-01-26T02:43:02.162Z,1.97
2023-01-26T02:44:03.506Z,1.96
2023-01-26T02:45:03.298Z,2.07
2023-01-26T02:46:03.480Z,2.05
2023-01-26T02:47:03.733Z,2.03
2023-01-26T02:48:02.237Z,1.99
2023-01-26T02:49:03.797Z,1.98
2023-01-26T02:50:02.643Z,2.02
2023-01-26T02:51:02.289Z,1.99
2023-01-26T02:52:02.469Z,2.00
2023-01-26T02:53:02.652Z,1.97
2023-01-26T02:54:02.693Z,1.96
2023-01-26T02:55:02.764Z,1.96
2023-01-26T02:56:02.559Z,1.97
2023-01-26T02:57:01.916Z,1.95
2023-01-26T02:58:01.487Z,1.93
2023-01-26T02:59:01.318Z,1.93
2023-01-26T03:00:01.859Z,1.93
2023-01-26T03:01:01.524Z,1.94
2023-01-26T03:02:02.361Z,1.92
2023-01-26T03:03:02.374Z,1.96
2023-01-26T03:04:02.034Z,1.92
2023-01-26T03:05:02.079Z,1.94
2023-01-26T03:06:02.306Z,1.92
2023-01-26T03:07:02.310Z,1.95
2023-01-26T03:08:02.965Z,1.93
2023-01-26T03:09:02.704Z,1.94
2023-01-26T03:10:02.355Z,1.92
2023-01-26T03:11:02.873Z,1.93
2023-01-26T03:12:02.875Z,1.91
2023-01-26T03:13:02.568Z,1.94
2023-01-26T03:14:02.321Z,1.93
2023-01-26T03:15:02.377Z,1.91
2023-01-26T03:16:02.901Z,1.92
2023-01-26T03:17:02.904Z,1.93
2023-01-26T03:18:02.826Z,1.92
2023-01-26T03:19:03.979Z,1.94
2023-01-26T03:20:04.032Z,2.05
2023-01-26T03:21:04.329Z,1.99
2023-01-26T03:22:03.334Z,1.99
2023-01-26T03:23:03.813Z,1.98
2023-01-26T03:24:03.703Z,1.97
2023-01-26T03:25:03.475Z,1.95
2023-01-26T03:26:03.398Z,1.95
2023-01-26T03:27:02.398Z,1.95
2023-01-26T03:28:04.029Z,1.99
2023-01-26T03:29:03.850Z,2.06
2023-01-26T03:30:03.580Z,2.01
2023-01-26T03:31:02.491Z,2.00
2023-01-26T03:32:02.594Z,2.00
2023-01-26T03:33:02.389Z,1.97
2023-01-26T03:34:02.241Z,1.96
2023-01-26T03:35:03.732Z,1.92
2023-01-26T03:36:03.873Z,2.03
2023-01-26T03:37:03.901Z,2.00
2023-01-26T03:38:04.211Z,1.97
2023-01-26T03:39:04.030Z,1.98
2023-01-26T03:40:04.108Z,1.97
2023-01-26T03:41:04.070Z,1.96
2023-01-26T03:42:03.098Z,1.95
2023-01-26T03:43:03.476Z,1.96
2023-01-26T03:44:03.130Z,1.97
2023-01-26T03:45:03.177Z,1.94
2023-01-26T03:46:03.429Z,1.95
2023-01-26T03:47:04.190Z,1.96
2023-01-26T03:48:04.264Z,1.93
2023-01-26T03:49:03.863Z,1.94
2023-01-26T03:50:04.127Z,1.94
2023-01-26T03:51:03.842Z,1.96
2023-01-26T03:52:03.478Z,1.93
2023-01-26T03:53:03.274Z,1.94
2023-01-26T03:54:03.522Z,1.94
2023-01-26T03:55:03.205Z,1.93
2023-01-26T03:56:03.639Z,1.92
2023-01-26T03:57:01.646Z,1.94
2023-01-26T03:58:01.553Z,1.95
2023-01-26T03:59:01.405Z,1.94
2023-01-26T04:00:01.942Z,1.94
2023-01-26T04:01:01.850Z,1.92
2023-01-26T04:02:03.010Z,1.92
2023-01-26T04:03:02.763Z,1.93
2023-01-26T04:04:02.604Z,1.90
2023-01-26T04:05:03.117Z,1.93
2023-01-26T04:06:15.564Z,1.94
2023-01-26T04:07:01.906Z,1.91
2023-01-26T04:08:01.947Z,1.93
2023-01-26T04:09:02.021Z,1.92
2023-01-26T04:10:02.107Z,1.92
2023-01-26T04:11:02.000Z,1.91
2023-01-26T04:12:02.609Z,1.91
2023-01-26T04:13:02.711Z,1.92
2023-01-26T04:14:02.523Z,1.92
2023-01-26T04:15:02.887Z,1.91
2023-01-26T04:16:02.614Z,1.93
2023-01-26T04:17:01.809Z,1.91
2023-01-26T04:18:01.929Z,1.90
2023-01-26T04:19:02.084Z,1.90
2023-01-26T04:20:01.795Z,1.91
2023-01-26T04:21:02.078Z,1.88
2023-01-26T04:22:02.862Z,1.88
2023-01-26T04:23:02.543Z,1.89
2023-01-26T04:24:02.666Z,1.91
2023-01-26T04:25:02.624Z,1.91
2023-01-26T04:26:02.616Z,1.91
2023-01-26T04:27:02.037Z,1.91
2023-01-26T04:28:01.812Z,1.91
2023-01-26T04:29:01.955Z,1.89
2023-01-26T04:30:02.185Z,1.89
2023-01-26T04:31:02.076Z,1.93
2023-01-26T04:32:02.492Z,1.91
2023-01-26T04:33:02.340Z,1.90
2023-01-26T04:34:02.184Z,1.89
2023-01-26T04:35:02.152Z,1.88
2023-01-26T04:36:02.587Z,1.90
2023-01-26T04:37:02.269Z,1.91
2023-01-26T04:38:02.307Z,1.90
2023-01-26T04:39:02.225Z,1.91
2023-01-26T04:40:02.453Z,1.88
2023-01-26T04:41:02.607Z,1.89
2023-01-26T04:42:02.672Z,1.87
2023-01-26T04:43:02.859Z,1.92
2023-01-26T04:44:02.313Z,1.90
2023-01-26T04:45:02.511Z,1.89
2023-01-26T04:46:02.584Z,1.90
2023-01-26T04:47:01.979Z,1.88
2023-01-26T04:48:02.014Z,1.91
2023-01-26T04:49:01.855Z,1.90
2023-01-26T04:50:01.990Z,1.89
2023-01-26T04:51:01.847Z,1.89
2023-01-26T04:52:02.557Z,1.90
2023-01-26T04:53:02.784Z,1.90
2023-01-26T04:54:02.706Z,1.90
2023-01-26T04:55:02.507Z,1.91
2023-01-26T04:56:02.228Z,1.88
2023-01-26T04:57:01.647Z,1.88
2023-01-26T04:58:02.569Z,1.91
2023-01-26T04:59:02.240Z,1.89
2023-01-26T05:00:01.719Z,1.91
2023-01-26T05:01:02.142Z,3.34
2023-01-26T05:02:02.460Z,3.53
2023-01-26T05:03:02.370Z,3.66
2023-01-26T05:04:02.814Z,3.58
2023-01-26T05:05:02.151Z,3.83
2023-01-26T05:06:02.497Z,3.96
2023-01-26T05:07:02.714Z,4.00
2023-01-26T05:08:02.561Z,4.01
2023-01-26T05:09:02.458Z,4.13
2023-01-26T05:10:02.374Z,4.17
2023-01-26T05:11:02.661Z,4.18
2023-01-26T05:12:01.892Z,4.27
2023-01-26T05:13:01.768Z,3.49
2023-01-26T05:14:02.302Z,3.33
2023-01-26T05:15:01.892Z,3.20
2023-01-26T05:16:02.109Z,3.14
2023-01-26T05:17:02.764Z,3.05
2023-01-26T05:18:02.213Z,4.26
2023-01-26T05:19:02.784Z,4.20
2023-01-26T05:20:02.785Z,4.29
2023-01-26T05:21:02.292Z,4.35
2023-01-26T05:22:01.995Z,4.40
2023-01-26T05:23:02.083Z,4.45
2023-01-26T05:24:02.159Z,4.44
2023-01-26T05:25:02.119Z,4.46
2023-01-26T05:26:01.790Z,4.47
2023-01-26T05:27:02.480Z,4.49
2023-01-26T05:28:02.174Z,4.53
2023-01-26T05:29:02.026Z,4.55
2023-01-26T05:30:02.617Z,4.54
2023-01-26T05:31:02.094Z,4.57
2023-01-26T05:32:01.590Z,4.63
2023-01-26T05:33:01.395Z,4.63
2023-01-26T05:34:01.632Z,4.63
2023-01-26T05:35:01.597Z,4.67
2023-01-26T05:36:01.885Z,4.64
2023-01-26T05:37:02.444Z,4.67
2023-01-26T05:38:02.491Z,4.66
2023-01-26T05:39:02.613Z,4.69
2023-01-26T05:40:02.248Z,4.52
2023-01-26T05:41:01.964Z,4.59
2023-01-26T05:42:02.275Z,4.67
2023-01-26T05:43:02.228Z,4.71
2023-01-26T05:44:02.368Z,4.01
2023-01-26T05:45:02.004Z,3.87
2023-01-26T05:46:02.355Z,3.78
2023-01-26T05:47:01.728Z,3.72
2023-01-26T05:48:01.845Z,4.45
2023-01-26T05:49:01.541Z,4.52
2023-01-26T05:50:01.627Z,4.06
2023-01-26T05:51:03.966Z,3.87
2023-01-26T05:52:02.172Z,3.79
2023-01-26T05:53:01.765Z,4.52
2023-01-26T05:54:01.814Z,4.58
2023-01-26T05:55:02.167Z,4.65
2023-01-26T05:56:02.182Z,4.67
2023-01-26T05:57:02.386Z,4.65
2023-01-26T05:58:02.453Z,4.68
2023-01-26T05:59:02.230Z,4.72
2023-01-26T06:00:02.037Z,4.74
2023-01-26T06:01:02.009Z,4.77
2023-01-26T06:02:03.386Z,4.78
2023-01-26T06:03:03.066Z,4.78
2023-01-26T06:04:03.259Z,4.82
2023-01-26T06:05:03.319Z,4.83
2023-01-26T06:06:03.363Z,4.85
2023-01-26T06:07:03.280Z,4.85
2023-01-26T06:08:04.413Z,4.88
2023-01-26T06:09:04.469Z,5.01
2023-01-26T06:10:04.477Z,5.00
2023-01-26T06:11:04.434Z,5.01
2023-01-26T06:12:04.185Z,5.02
2023-01-26T06:13:04.368Z,5.02
2023-01-26T06:14:04.732Z,5.06
2023-01-26T06:15:04.715Z,5.03
2023-01-26T06:16:04.446Z,5.04
2023-01-26T06:17:05.269Z,5.07
2023-01-26T06:18:04.825Z,5.06
2023-01-26T06:19:05.218Z,5.08
2023-01-26T06:20:05.009Z,5.07
2023-01-26T06:21:04.678Z,5.07
2023-01-26T06:22:04.231Z,5.07
2023-01-26T06:23:04.433Z,5.10
2023-01-26T06:24:04.313Z,5.09
2023-01-26T06:25:04.011Z,5.12
2023-01-26T06:26:04.371Z,5.10
2023-01-26T06:27:04.144Z,5.12
2023-01-26T06:28:03.883Z,5.12
2023-01-26T06:29:04.167Z,5.11
2023-01-26T06:30:04.232Z,5.15
2023-01-26T06:31:04.203Z,5.12
2023-01-26T06:32:03.836Z,5.12
2023-01-26T06:33:04.237Z,5.15
2023-01-26T06:34:03.703Z,5.14
2023-01-26T06:35:03.823Z,5.15
2023-01-26T06:36:03.893Z,5.15
2023-01-26T06:37:04.170Z,5.15
2023-01-26T06:38:04.021Z,5.17
2023-01-26T06:39:04.424Z,5.16
2023-01-26T06:40:04.591Z,5.15
2023-01-26T06:41:03.919Z,5.15
2023-01-26T06:42:04.586Z,5.16
2023-01-26T06:43:03.992Z,5.16
2023-01-26T06:44:04.382Z,5.18
2023-01-26T06:45:04.530Z,5.16
2023-01-26T06:46:04.078Z,5.17
2023-01-26T06:47:05.044Z,5.19
2023-01-26T06:48:04.974Z,5.15
2023-01-26T06:49:04.514Z,5.17
2023-01-26T06:50:05.024Z,5.17
2023-01-26T06:51:04.555Z,4.81
2023-01-26T06:52:03.954Z,4.96
2023-01-26T06:53:03.766Z,4.53
2023-01-26T06:54:03.874Z,4.36
2023-01-26T06:55:04.139Z,4.26
2023-01-26T06:56:03.694Z,4.18
2023-01-26T06:57:04.641Z,4.10
2023-01-26T06:58:04.131Z,4.06
2023-01-26T06:59:04.309Z,4.01
2023-01-26T07:00:04.523Z,3.98
2023-01-26T07:01:04.201Z,3.95
2023-01-26T07:02:04.590Z,3.86
2023-01-26T07:03:04.837Z,3.82
2023-01-26T07:04:04.695Z,3.81
2023-01-26T07:05:04.712Z,4.76
2023-01-26T07:06:04.800Z,4.89
2023-01-26T07:07:04.986Z,4.94
2023-01-26T07:08:05.182Z,5.00
2023-01-26T07:09:04.943Z,5.06
2023-01-26T07:10:05.102Z,5.09
2023-01-26T07:11:05.314Z,5.13
2023-01-26T07:12:04.672Z,5.13
2023-01-26T07:13:04.751Z,5.15
2023-01-26T07:14:04.561Z,5.15
2023-01-26T07:15:04.545Z,5.17
2023-01-26T07:16:04.630Z,5.19
2023-01-26T07:17:04.308Z,5.20
2023-01-26T07:18:03.918Z,5.21
2023-01-26T07:19:03.856Z,5.20
2023-01-26T07:20:03.728Z,5.20
2023-01-26T07:21:03.720Z,5.21
2023-01-26T07:22:04.379Z,5.24
2023-01-26T07:23:04.698Z,5.23
2023-01-26T07:24:04.851Z,5.22
2023-01-26T07:25:04.787Z,5.26
2023-01-26T07:26:04.651Z,5.25
2023-01-26T07:27:04.271Z,5.24
2023-01-26T07:28:04.454Z,5.26
2023-01-26T07:29:03.845Z,5.23
2023-01-26T07:30:04.010Z,5.26
2023-01-26T07:31:04.088Z,5.26
2023-01-26T07:32:04.199Z,5.26
2023-01-26T07:33:04.449Z,5.24
2023-01-26T07:34:04.485Z,5.27
2023-01-26T07:35:04.217Z,5.25
2023-01-26T07:36:04.500Z,5.27
2023-01-26T07:37:04.086Z,5.28
2023-01-26T07:38:04.236Z,5.28
2023-01-26T07:39:06.426Z,5.28
2023-01-26T07:40:04.546Z,5.26
2023-01-26T07:41:04.291Z,5.29
2023-01-26T07:42:03.845Z,5.27
2023-01-26T07:43:03.963Z,5.26
2023-01-26T07:44:04.286Z,5.26
2023-01-26T07:45:03.973Z,5.27
2023-01-26T07:46:03.993Z,5.27
2023-01-26T07:47:04.351Z,5.29
2023-01-26T07:48:04.150Z,5.29
2023-01-26T07:49:04.284Z,5.29
2023-01-26T07:50:04.264Z,5.29
2023-01-26T07:51:04.028Z,5.28
2023-01-26T07:52:04.851Z,5.28
2023-01-26T07:53:04.252Z,5.29
2023-01-26T07:54:03.851Z,5.27
2023-01-26T07:55:04.229Z,5.27
2023-01-26T07:56:04.290Z,5.28
2023-01-26T07:57:04.185Z,5.27
2023-01-26T07:58:04.421Z,5.28
2023-01-26T07:59:03.923Z,5.28
2023-01-26T08:00:02.507Z,5.27
2023-01-26T08:01:02.715Z,5.26
2023-01-26T08:02:03.265Z,5.26
2023-01-26T08:03:03.523Z,5.27
2023-01-26T08:04:04.616Z,5.26
2023-01-26T08:05:04.740Z,5.26
2023-01-26T08:06:04.734Z,5.28
2023-01-26T08:07:02.625Z,5.29
2023-01-26T08:08:02.714Z,4.59
2023-01-26T08:09:02.641Z,4.47
2023-01-26T08:10:02.940Z,4.38
2023-01-26T08:11:02.699Z,4.99
2023-01-26T08:12:03.498Z,5.11
2023-01-26T08:13:03.623Z,5.14
2023-01-26T08:14:03.120Z,5.18
2023-01-26T08:15:03.530Z,5.19
2023-01-26T08:16:03.684Z,5.21
2023-01-26T08:17:03.222Z,5.21
2023-01-26T08:18:03.075Z,5.21
2023-01-26T08:19:03.298Z,5.24
2023-01-26T08:20:02.963Z,5.21
2023-01-26T08:21:02.903Z,5.21
2023-01-26T08:22:03.396Z,5.23
2023-01-26T08:23:03.483Z,5.23
2023-01-26T08:24:04.511Z,5.24
2023-01-26T08:25:04.553Z,5.29
2023-01-26T08:26:04.512Z,5.29
2023-01-26T08:27:04.154Z,5.27
2023-01-26T08:28:03.580Z,5.29
2023-01-26T08:29:04.163Z,5.28
2023-01-26T08:30:03.625Z,5.27
2023-01-26T08:31:03.766Z,5.28
2023-01-26T08:32:02.247Z,5.29
2023-01-26T08:33:02.535Z,5.28
2023-01-26T08:34:02.595Z,5.28
2023-01-26T08:35:02.290Z,5.26
2023-01-26T08:36:02.179Z,5.26
2023-01-26T08:37:02.458Z,5.25
2023-01-26T08:38:02.427Z,5.25
2023-01-26T08:39:02.657Z,5.24
2023-01-26T08:40:02.604Z,5.25
2023-01-26T08:41:02.676Z,5.26
2023-01-26T08:42:02.746Z,5.23
2023-01-26T08:43:03.010Z,5.26
2023-01-26T08:44:02.758Z,5.25
2023-01-26T08:45:02.640Z,5.24
2023-01-26T08:46:03.213Z,5.24
2023-01-26T08:47:02.839Z,5.18
2023-01-26T08:48:02.207Z,5.16
2023-01-26T08:49:02.846Z,5.22
2023-01-26T08:50:02.630Z,5.22
2023-01-26T08:51:02.531Z,5.23
2023-01-26T08:52:03.435Z,5.23
2023-01-26T08:53:03.129Z,5.23
2023-01-26T08:54:03.032Z,5.24
2023-01-26T08:55:02.939Z,5.24
2023-01-26T08:56:02.968Z,5.23
2023-01-26T08:57:02.887Z,5.25
2023-01-26T08:58:02.574Z,5.25
2023-01-26T08:59:02.613Z,5.25
2023-01-26T09:00:02.249Z,4.62
2023-01-26T09:01:02.868Z,4.47
2023-01-26T09:02:03.465Z,4.37
2023-01-26T09:03:03.110Z,4.29
2023-01-26T09:04:02.977Z,4.22
2023-01-26T09:05:02.909Z,4.15
2023-01-26T09:06:03.103Z,4.11
2023-01-26T09:07:02.228Z,4.05
2023-01-26T09:08:02.464Z,4.02
2023-01-26T09:09:02.193Z,3.96
2023-01-26T09:10:02.600Z,3.92
2023-01-26T09:11:02.131Z,3.89
2023-01-26T09:12:02.117Z,3.85
2023-01-26T09:13:02.519Z,3.83
2023-01-26T09:14:02.590Z,3.79
2023-01-26T09:15:02.077Z,3.75
2023-01-26T09:16:02.657Z,3.72
2023-01-26T09:17:02.897Z,3.72
2023-01-26T09:18:03.160Z,3.66
2023-01-26T09:19:02.795Z,3.63
2023-01-26T09:20:02.773Z,3.63
2023-01-26T09:21:02.837Z,3.60
2023-01-26T09:22:02.778Z,3.56
2023-01-26T09:23:02.832Z,3.55
2023-01-26T09:24:03.025Z,3.54
2023-01-26T09:25:03.356Z,3.51
2023-01-26T09:26:03.286Z,3.47
2023-01-26T09:27:02.175Z,3.48
2023-01-26T09:28:02.514Z,3.43
2023-01-26T09:29:02.451Z,3.42
2023-01-26T09:30:02.316Z,3.39
2023-01-26T09:31:02.389Z,3.38
2023-01-26T09:32:02.518Z,3.35
2023-01-26T09:33:02.357Z,3.34
2023-01-26T09:34:01.987Z,3.32
2023-01-26T09:35:02.352Z,3.31
2023-01-26T09:36:02.864Z,3.28
2023-01-26T09:37:02.090Z,3.28
2023-01-26T09:38:02.249Z,3.24
2023-01-26T09:39:02.691Z,3.24
2023-01-26T09:40:02.662Z,3.22
2023-01-26T09:41:02.363Z,3.20
2023-01-26T09:42:02.335Z,3.19
2023-01-26T09:43:02.914Z,3.18
2023-01-26T09:44:02.325Z,3.18
2023-01-26T09:45:02.718Z,3.14
2023-01-26T09:46:02.379Z,3.14
2023-01-26T09:47:01.770Z,3.12
2023-01-26T09:48:01.641Z,3.13
2023-01-26T09:49:01.788Z,3.11
2023-01-26T09:50:01.698Z,4.18
2023-01-26T09:51:02.179Z,4.38
2023-01-26T09:52:01.987Z,4.42
2023-01-26T09:53:02.009Z,4.49
2023-01-26T09:54:01.975Z,4.45
2023-01-26T09:55:02.161Z,3.94
2023-01-26T09:56:02.371Z,3.74
2023-01-26T09:57:02.237Z,4.65
2023-01-26T09:58:02.410Z,4.78
2023-01-26T09:59:02.341Z,3.99
2023-01-26T10:00:02.335Z,3.87
2023-01-26T10:01:02.603Z,3.77
2023-01-26T10:02:03.232Z,3.70
2023-01-26T10:03:02.692Z,3.63
2023-01-26T10:04:02.627Z,3.58
2023-01-26T10:05:03.011Z,3.52
2023-01-26T10:06:03.090Z,3.49
2023-01-26T10:07:03.001Z,4.06
2023-01-26T10:08:02.973Z,3.84
2023-01-26T10:09:02.927Z,3.57
2023-01-26T10:10:03.465Z,3.49
2023-01-26T10:11:03.398Z,3.46
2023-01-26T10:12:02.856Z,3.44
2023-01-26T10:13:02.808Z,3.39
2023-01-26T10:14:02.472Z,3.34
2023-01-26T10:15:03.020Z,4.38
2023-01-26T10:16:02.361Z,4.55
2023-01-26T10:17:02.542Z,3.75
2023-01-26T10:18:02.560Z,3.63
2023-01-26T10:19:02.947Z,3.51
2023-01-26T10:20:02.460Z,3.49
2023-01-26T10:21:02.329Z,3.46
2023-01-26T10:22:02.702Z,3.41
2023-01-26T10:23:03.129Z,3.37
2023-01-26T10:24:03.036Z,3.34
2023-01-26T10:25:02.732Z,3.32
2023-01-26T10:26:03.061Z,3.26
2023-01-26T10:27:02.724Z,3.27
2023-01-26T10:28:02.709Z,4.44
2023-01-26T10:29:02.531Z,4.60
2023-01-26T10:30:02.523Z,4.69
2023-01-26T10:31:03.052Z,4.76
2023-01-26T10:32:02.291Z,4.82
2023-01-26T10:33:02.114Z,4.88
2023-01-26T10:34:02.113Z,4.92
2023-01-26T10:35:02.180Z,4.93
2023-01-26T10:36:02.327Z,4.97
2023-01-26T10:37:02.670Z,4.98
2023-01-26T10:38:02.631Z,5.00
2023-01-26T10:39:02.675Z,5.02
2023-01-26T10:40:02.971Z,5.05
2023-01-26T10:41:02.578Z,5.03
2023-01-26T10:42:02.576Z,5.05
2023-01-26T10:43:02.237Z,5.05
2023-01-26T10:44:02.660Z,5.05
2023-01-26T10:45:02.160Z,5.07
2023-01-26T10:46:02.231Z,5.07
2023-01-26T10:47:02.238Z,5.08
2023-01-26T10:48:02.491Z,5.07
2023-01-26T10:49:02.412Z,5.09
2023-01-26T10:50:02.672Z,5.10
2023-01-26T10:51:02.500Z,5.11
2023-01-26T10:52:02.843Z,5.11
2023-01-26T10:53:02.688Z,5.10
2023-01-26T10:54:03.164Z,5.08
2023-01-26T10:55:02.735Z,5.12
2023-01-26T10:56:02.982Z,5.10
2023-01-26T10:57:02.148Z,5.14
2023-01-26T10:58:01.998Z,5.14
2023-01-26T10:59:01.844Z,5.12
2023-01-26T11:00:02.225Z,5.13
2023-01-26T11:01:01.823Z,5.14
2023-01-26T11:02:02.989Z,5.12
2023-01-26T11:03:03.617Z,5.13
2023-01-26T11:04:02.946Z,5.14
2023-01-26T11:05:03.512Z,5.12
2023-01-26T11:06:02.974Z,5.13
2023-01-26T11:07:02.578Z,5.12
2023-01-26T11:08:02.185Z,5.14
2023-01-26T11:09:02.167Z,5.12
2023-01-26T11:10:02.637Z,5.12
2023-01-26T11:11:02.514Z,5.11
2023-01-26T11:12:02.138Z,5.14
2023-01-26T11:13:02.572Z,5.13
2023-01-26T11:14:02.600Z,5.14
2023-01-26T11:15:02.538Z,5.14
2023-01-26T11:16:02.382Z,5.13
2023-01-26T11:17:02.745Z,5.14
2023-01-26T11:18:02.467Z,5.14
2023-01-26T11:19:02.565Z,5.13
2023-01-26T11:20:02.929Z,5.13
2023-01-26T11:21:02.584Z,5.13
2023-01-26T11:22:02.848Z,5.14
2023-01-26T11:23:02.856Z,5.13
2023-01-26T11:24:02.556Z,5.13
2023-01-26T11:25:02.800Z,5.12
2023-01-26T11:26:02.796Z,5.16
2023-01-26T11:27:02.370Z,5.18
2023-01-26T11:28:02.191Z,5.16
2023-01-26T11:29:02.188Z,5.16
2023-01-26T11:30:02.227Z,5.18
2023-01-26T11:31:02.457Z,5.17
2023-01-26T11:32:02.388Z,5.18
2023-01-26T11:33:02.829Z,5.16
2023-01-26T11:34:02.375Z,5.18
2023-01-26T11:35:02.961Z,5.17
2023-01-26T11:36:02.902Z,5.17
2023-01-26T11:37:03.052Z,5.17
2023-01-26T11:38:02.942Z,5.18
2023-01-26T11:39:02.730Z,5.18
2023-01-26T11:40:02.829Z,5.17
2023-01-26T11:41:02.784Z,5.16
2023-01-26T11:42:02.009Z,5.14
2023-01-26T11:43:02.421Z,5.16
2023-01-26T11:44:02.047Z,5.17
2023-01-26T11:45:01.783Z,5.18
2023-01-26T11:46:02.434Z,5.16
2023-01-26T11:47:02.120Z,5.18
2023-01-26T11:48:02.112Z,5.17
2023-01-26T11:49:02.372Z,5.15
2023-01-26T11:50:02.078Z,5.18
2023-01-26T11:51:04.199Z,5.16
2023-01-26T11:52:02.663Z,5.18
2023-01-26T11:53:02.254Z,5.17
2023-01-26T11:54:02.196Z,5.20
2023-01-26T11:55:02.797Z,5.17
2023-01-26T11:56:02.425Z,5.17
2023-01-26T11:57:02.237Z,5.17
2023-01-26T11:58:02.854Z,5.19
2023-01-26T11:59:02.279Z,5.19
2023-01-26T12:00:02.393Z,5.19
2023-01-26T12:01:02.202Z,5.16
2023-01-26T12:02:02.691Z,5.18
2023-01-26T12:03:02.316Z,5.19
2023-01-26T12:04:02.394Z,5.19
2023-01-26T12:05:02.735Z,5.17
2023-01-26T12:06:02.307Z,5.19
2023-01-26T12:07:02.519Z,5.17
2023-01-26T12:08:02.744Z,5.17
2023-01-26T12:09:02.989Z,5.17
2023-01-26T12:10:03.056Z,5.19
2023-01-26T12:11:02.673Z,5.19
2023-01-26T12:12:03.189Z,5.19
2023-01-26T12:13:02.913Z,5.17
2023-01-26T12:14:02.846Z,5.17
2023-01-26T12:15:05.812Z,5.19
2023-01-26T12:16:03.164Z,5.19
2023-01-26T12:17:17.269Z,5.18
2023-01-26T12:18:02.660Z,5.18
2023-01-26T12:19:10.693Z,5.16
2023-01-26T12:20:02.340Z,5.18
2023-01-26T12:21:02.447Z,5.17
2023-01-26T12:22:02.961Z,5.17
2023-01-26T12:23:02.709Z,5.16
2023-01-26T12:24:03.147Z,5.17
2023-01-26T12:25:18.623Z,4.61
2023-01-26T12:26:02.467Z,4.44
2023-01-26T12:27:03.293Z,4.34
2023-01-26T12:28:03.336Z,4.25
2023-01-26T12:29:02.851Z,4.19
2023-01-26T12:30:02.979Z,5.02
2023-01-26T12:31:03.464Z,5.06
2023-01-26T12:32:02.731Z,5.09
2023-01-26T12:33:02.384Z,5.11
2023-01-26T12:34:02.218Z,5.14
2023-01-26T12:35:02.411Z,5.16
2023-01-26T12:36:02.337Z,5.16
2023-01-26T12:37:02.819Z,5.17
2023-01-26T12:38:16.929Z,5.16
2023-01-26T12:39:02.273Z,5.18
2023-01-26T12:40:02.514Z,5.16
2023-01-26T12:41:02.890Z,5.17
2023-01-26T12:42:03.129Z,5.15
2023-01-26T12:43:03.089Z,5.17
2023-01-26T12:44:02.806Z,5.17
2023-01-26T12:45:03.168Z,5.18
2023-01-26T12:46:02.827Z,5.17
2023-01-26T12:47:02.704Z,5.16
2023-01-26T12:48:02.687Z,5.18
2023-01-26T12:49:02.216Z,5.16
2023-01-26T12:50:02.648Z,5.18
2023-01-26T12:51:02.456Z,5.15
2023-01-26T12:52:03.332Z,5.17
2023-01-26T12:53:03.098Z,5.17
2023-01-26T12:54:02.997Z,5.17
2023-01-26T12:55:02.808Z,5.17
2023-01-26T12:56:03.058Z,5.19
2023-01-26T12:57:02.339Z,5.17
2023-01-26T12:58:02.419Z,5.17
2023-01-26T12:59:02.909Z,5.18
2023-01-26T13:00:02.816Z,5.18
2023-01-26T13:01:02.913Z,5.19
2023-01-26T13:02:02.354Z,5.18
2023-01-26T13:03:02.485Z,5.18
2023-01-26T13:04:02.813Z,5.18
2023-01-26T13:05:02.694Z,5.18
2023-01-26T13:06:02.499Z,5.19
2023-01-26T13:07:02.506Z,5.18
2023-01-26T13:08:02.506Z,5.18
2023-01-26T13:09:03.115Z,5.18
2023-01-26T13:10:02.674Z,5.17
2023-01-26T13:11:03.320Z,5.18
2023-01-26T13:12:02.583Z,5.20
2023-01-26T13:13:02.024Z,5.19
2023-01-26T13:14:02.151Z,5.18
2023-01-26T13:15:02.577Z,5.19
2023-01-26T13:16:02.078Z,5.16
2023-01-26T13:17:01.711Z,5.16
2023-01-26T13:18:02.256Z,5.18